Open Full Screen Window  High Contrast Mode
Wind Gusting 00 knots
09
January 18, 2018 10:40 PM EST
Weather Information
Wind Direction
  210 °
Wind Speed
  09 kt (10 mph)
Wind Gust
  00 kt (0 mph)
Altimeter
30.15 in
Visibility
10 SM
Temperature
-06° C
21° F
Dewpoint
-11° C
12° F
Humidity
68%
1hr Rain Fall
00.00 in.
24hr Rain Fall
00.00 in.
Sky Condition
Clear
VFR

METAR KMRT 190340Z AUTO 21009KT 10SM CLR M06/M11 A3015 RMK AO2 T10641107

*Background is not an actual portrayal of the airport.